createdAt,value
2023-04-26T00:00:27.811Z,49.33
2023-04-26T00:01:27.801Z,49.39
2023-04-26T00:02:28.016Z,49.64
2023-04-26T00:03:27.936Z,49.21
2023-04-26T00:04:27.932Z,50.15
2023-04-26T00:05:27.788Z,49.30
2023-04-26T00:06:27.785Z,49.59
2023-04-26T00:07:28.885Z,49.41
2023-04-26T00:08:27.755Z,49.05
2023-04-26T00:09:27.745Z,50.64
2023-04-26T00:10:27.750Z,49.59
2023-04-26T00:11:27.772Z,49.32
2023-04-26T00:12:27.768Z,49.33
2023-04-26T00:13:27.724Z,49.29
2023-04-26T00:14:27.706Z,49.04
2023-04-26T00:15:27.720Z,50.08
2023-04-26T00:16:27.756Z,49.52
2023-04-26T00:17:27.692Z,49.02
2023-04-26T00:18:27.698Z,49.64
2023-04-26T00:19:27.687Z,49.15
2023-04-26T00:20:27.687Z,49.01
2023-04-26T00:21:27.672Z,49.05
2023-04-26T00:22:27.655Z,49.23
2023-04-26T00:23:27.664Z,49.29
2023-04-26T00:24:27.648Z,50.08
2023-04-26T00:25:27.642Z,49.57
2023-04-26T00:26:27.662Z,49.99
2023-04-26T00:27:27.637Z,49.71
2023-04-26T00:28:27.694Z,50.28
2023-04-26T00:29:27.634Z,49.88
2023-04-26T00:30:27.642Z,49.74
2023-04-26T00:31:27.646Z,49.38
2023-04-26T00:32:27.647Z,49.14
2023-04-26T00:33:27.619Z,49.14
2023-04-26T00:34:27.598Z,49.80
2023-04-26T00:35:27.670Z,49.32
2023-04-26T00:36:27.623Z,49.32
2023-04-26T00:37:27.577Z,49.38
2023-04-26T00:38:27.584Z,49.92
2023-04-26T00:39:27.617Z,50.21
2023-04-26T00:40:27.564Z,49.63
2023-04-26T00:41:27.643Z,49.96
2023-04-26T00:42:27.621Z,49.46
2023-04-26T00:43:27.585Z,49.88
2023-04-26T00:44:27.536Z,49.99
2023-04-26T00:45:27.707Z,51.55
2023-04-26T00:46:27.554Z,49.57
2023-04-26T00:47:27.632Z,49.67
2023-04-26T00:48:27.607Z,50.04
2023-04-26T00:49:27.724Z,49.52
2023-04-26T00:50:27.568Z,49.58
2023-04-26T00:51:27.590Z,50.22
2023-04-26T00:52:27.486Z,50.06
2023-04-26T00:53:28.766Z,50.13
2023-04-26T00:54:27.469Z,50.77
2023-04-26T00:55:27.482Z,50.84
2023-04-26T00:56:27.458Z,50.90
2023-04-26T00:57:27.448Z,50.80
2023-04-26T00:58:27.462Z,49.84
2023-04-26T00:59:27.501Z,49.58
2023-04-26T01:00:27.419Z,50.21
2023-04-26T01:01:27.475Z,51.11
2023-04-26T01:02:27.570Z,51.08
2023-04-26T01:03:27.601Z,50.42
2023-04-26T01:04:27.598Z,50.02
2023-04-26T01:05:27.392Z,49.71
2023-04-26T01:06:27.382Z,49.70
2023-04-26T01:07:27.393Z,49.22
2023-04-26T01:08:27.406Z,49.15
2023-04-26T01:09:27.371Z,49.46
2023-04-26T01:10:27.363Z,49.50
2023-04-26T01:11:27.354Z,49.62
2023-04-26T01:12:27.346Z,49.97
2023-04-26T01:13:27.353Z,50.10
2023-04-26T01:14:27.330Z,49.28
2023-04-26T01:15:27.323Z,49.18
2023-04-26T01:16:27.379Z,49.41
2023-04-26T01:17:27.373Z,49.71
2023-04-26T01:18:27.357Z,49.80
2023-04-26T01:19:27.292Z,50.94
2023-04-26T01:20:27.298Z,49.58
2023-04-26T01:21:27.284Z,49.28
2023-04-26T01:22:27.284Z,49.68
2023-04-26T01:23:27.291Z,49.74
2023-04-26T01:24:27.357Z,49.98
2023-04-26T01:25:27.268Z,50.40
2023-04-26T01:26:27.246Z,50.31
2023-04-26T01:27:27.240Z,50.69
2023-04-26T01:28:27.264Z,49.91
2023-04-26T01:29:27.222Z,50.34
2023-04-26T01:30:27.242Z,50.23
2023-04-26T01:31:27.268Z,49.78
2023-04-26T01:32:28.290Z,49.79
2023-04-26T01:33:27.278Z,49.34
2023-04-26T01:34:27.201Z,49.16
2023-04-26T01:35:27.214Z,48.99
2023-04-26T01:36:27.178Z,48.66
2023-04-26T01:37:27.208Z,48.57
2023-04-26T01:38:27.179Z,48.79
2023-04-26T01:39:27.161Z,49.41
2023-04-26T01:40:27.144Z,49.70
2023-04-26T01:41:27.156Z,49.90
2023-04-26T01:42:27.130Z,49.53
2023-04-26T01:43:27.296Z,49.89
2023-04-26T01:44:27.134Z,49.95
2023-04-26T01:45:27.128Z,49.85
2023-04-26T01:46:27.196Z,49.46
2023-04-26T01:47:27.177Z,49.92
2023-04-26T01:48:27.117Z,49.91
2023-04-26T01:49:27.086Z,50.18
2023-04-26T01:50:27.089Z,50.44
2023-04-26T01:51:27.105Z,50.52
2023-04-26T01:52:27.073Z,50.33
2023-04-26T01:53:27.063Z,49.73
2023-04-26T01:54:27.093Z,49.28
2023-04-26T01:55:27.056Z,49.24
2023-04-26T01:56:27.076Z,49.23
2023-04-26T01:57:27.060Z,49.73
2023-04-26T01:58:27.030Z,49.82
2023-04-26T01:59:27.057Z,49.44
2023-04-26T02:00:27.008Z,49.86
2023-04-26T02:01:27.028Z,50.38
2023-04-26T02:02:27.043Z,50.37
2023-04-26T02:03:27.021Z,50.39
2023-04-26T02:04:27.249Z,50.17
2023-04-26T02:05:27.055Z,50.53
2023-04-26T02:06:26.997Z,57.28
2023-04-26T02:07:26.983Z,57.14
2023-04-26T02:08:26.969Z,56.00
2023-04-26T02:09:26.979Z,56.33
2023-04-26T02:10:26.967Z,56.19
2023-04-26T02:11:26.995Z,55.87
2023-04-26T02:12:26.950Z,56.13
2023-04-26T02:13:26.932Z,56.39
2023-04-26T02:14:26.951Z,55.86
2023-04-26T02:15:26.924Z,53.53
2023-04-26T02:16:26.981Z,51.33
2023-04-26T02:17:26.930Z,48.41
2023-04-26T02:18:26.913Z,49.81
2023-04-26T02:19:26.931Z,50.53
2023-04-26T02:20:26.902Z,50.70
2023-04-26T02:21:26.912Z,50.76
2023-04-26T02:22:26.880Z,51.87
2023-04-26T02:23:26.861Z,52.44
2023-04-26T02:24:26.890Z,51.25
2023-04-26T02:25:26.860Z,50.06
2023-04-26T02:26:26.858Z,49.79
2023-04-26T02:27:26.859Z,50.49
2023-04-26T02:28:26.840Z,49.58
2023-04-26T02:29:40.252Z,50.64
2023-04-26T02:30:28.840Z,49.39
2023-04-26T02:31:26.845Z,49.27
2023-04-26T02:32:26.875Z,49.63
2023-04-26T02:33:26.825Z,49.77
2023-04-26T02:34:26.821Z,49.38
2023-04-26T02:35:26.813Z,50.02
2023-04-26T02:36:26.808Z,50.88
2023-04-26T02:37:26.782Z,50.82
2023-04-26T02:38:26.782Z,51.11
2023-04-26T02:39:26.801Z,50.77
2023-04-26T02:40:26.794Z,50.34
2023-04-26T02:41:26.758Z,50.42
2023-04-26T02:42:26.751Z,49.80
2023-04-26T02:43:26.784Z,50.31
2023-04-26T02:44:26.757Z,51.54
2023-04-26T02:45:26.763Z,51.26
2023-04-26T02:46:26.758Z,50.71
2023-04-26T02:47:26.740Z,51.20
2023-04-26T02:48:26.718Z,51.05
2023-04-26T02:49:26.726Z,50.94
2023-04-26T02:50:26.725Z,50.79
2023-04-26T02:51:26.699Z,50.38
2023-04-26T02:52:26.692Z,51.02
2023-04-26T02:53:26.680Z,50.95
2023-04-26T02:54:26.689Z,52.31
2023-04-26T02:55:26.675Z,50.11
2023-04-26T02:56:26.695Z,50.19
2023-04-26T02:57:26.653Z,50.26
2023-04-26T02:58:26.657Z,50.35
2023-04-26T02:59:26.723Z,50.81
2023-04-26T03:00:26.639Z,49.49
2023-04-26T03:01:26.717Z,49.50
2023-04-26T03:02:26.810Z,49.84
2023-04-26T03:03:26.737Z,49.68
2023-04-26T03:04:26.630Z,49.71
2023-04-26T03:05:26.605Z,49.94
2023-04-26T03:06:26.595Z,50.10
2023-04-26T03:07:26.611Z,50.44
2023-04-26T03:08:26.608Z,50.17
2023-04-26T03:09:26.598Z,50.36
2023-04-26T03:10:26.605Z,50.72
2023-04-26T03:11:26.571Z,52.64
2023-04-26T03:12:26.573Z,53.02
2023-04-26T03:13:26.616Z,52.53
2023-04-26T03:14:26.571Z,52.29
2023-04-26T03:15:26.543Z,51.74
2023-04-26T03:16:26.583Z,52.26
2023-04-26T03:17:26.532Z,51.94
2023-04-26T03:18:26.535Z,52.67
2023-04-26T03:19:26.540Z,53.62
2023-04-26T03:20:26.510Z,52.55
2023-04-26T03:21:26.499Z,52.69
2023-04-26T03:22:26.507Z,53.17
2023-04-26T03:23:26.500Z,53.09
2023-04-26T03:24:26.509Z,52.88
2023-04-26T03:25:26.514Z,52.22
2023-04-26T03:26:26.504Z,52.36
2023-04-26T03:27:26.480Z,54.86
2023-04-26T03:28:26.462Z,51.57
2023-04-26T03:29:26.499Z,51.13
2023-04-26T03:30:26.469Z,50.99
2023-04-26T03:31:26.476Z,51.75
2023-04-26T03:32:26.462Z,52.11
2023-04-26T03:33:26.448Z,51.98
2023-04-26T03:34:26.445Z,51.54
2023-04-26T03:35:27.453Z,51.19
2023-04-26T03:36:26.416Z,51.27
2023-04-26T03:37:26.419Z,50.34
2023-04-26T03:38:26.424Z,50.14
2023-04-26T03:39:26.429Z,50.54
2023-04-26T03:40:26.389Z,50.86
2023-04-26T03:41:26.391Z,50.99
2023-04-26T03:42:26.381Z,51.42
2023-04-26T03:43:26.388Z,52.31
2023-04-26T03:44:26.372Z,51.51
2023-04-26T03:45:26.380Z,51.61
2023-04-26T03:46:26.399Z,51.29
2023-04-26T03:47:26.396Z,54.35
2023-04-26T03:48:26.336Z,58.19
2023-04-26T03:49:26.343Z,55.83
2023-04-26T03:50:26.375Z,55.76
2023-04-26T03:51:26.324Z,55.89
2023-04-26T03:52:26.329Z,55.39
2023-04-26T03:53:26.304Z,55.31
2023-04-26T03:54:26.307Z,54.84
2023-04-26T03:55:27.331Z,54.59
2023-04-26T03:56:26.287Z,54.65
2023-04-26T03:57:26.282Z,55.18
2023-04-26T03:58:26.284Z,55.95
2023-04-26T03:59:26.272Z,56.31
2023-04-26T04:00:26.305Z,56.73
2023-04-26T04:01:26.328Z,56.92
2023-04-26T04:02:26.372Z,57.10
2023-04-26T04:03:26.393Z,56.68
2023-04-26T04:04:26.399Z,56.72
2023-04-26T04:05:26.324Z,55.96
2023-04-26T04:06:26.216Z,56.28
2023-04-26T04:07:26.224Z,56.39
2023-04-26T04:08:26.245Z,56.43
2023-04-26T04:09:26.206Z,56.57
2023-04-26T04:10:26.223Z,57.07
2023-04-26T04:11:26.218Z,57.00
2023-04-26T04:12:26.190Z,56.79
2023-04-26T04:13:26.177Z,56.49
2023-04-26T04:14:26.184Z,56.41
2023-04-26T04:15:26.191Z,56.50
2023-04-26T04:16:26.239Z,56.60
2023-04-26T04:17:26.178Z,56.73
2023-04-26T04:18:26.159Z,56.83
2023-04-26T04:19:26.146Z,56.75
2023-04-26T04:20:26.158Z,56.80
2023-04-26T04:21:26.124Z,56.44
2023-04-26T04:22:26.130Z,55.97
2023-04-26T04:23:26.109Z,56.13
2023-04-26T04:24:26.115Z,56.22
2023-04-26T04:25:26.133Z,56.36
2023-04-26T04:26:26.103Z,56.28
2023-04-26T04:27:26.093Z,56.21
2023-04-26T04:28:26.085Z,55.93
2023-04-26T04:29:26.082Z,55.80
2023-04-26T04:30:26.135Z,55.98
2023-04-26T04:31:26.165Z,56.20
2023-04-26T04:32:26.076Z,56.53
2023-04-26T04:33:26.107Z,56.40
2023-04-26T04:34:26.063Z,56.41
2023-04-26T04:35:26.060Z,56.33
2023-04-26T04:36:26.044Z,57.11
2023-04-26T04:37:26.036Z,57.02
2023-04-26T04:38:26.021Z,56.78
2023-04-26T04:39:26.021Z,56.89
2023-04-26T04:40:26.033Z,56.85
2023-04-26T04:41:26.007Z,56.90
2023-04-26T04:42:25.992Z,57.08
2023-04-26T04:43:26.133Z,56.90
2023-04-26T04:44:25.985Z,56.90
2023-04-26T04:45:28.853Z,56.67
2023-04-26T04:46:26.059Z,56.70
2023-04-26T04:47:26.025Z,56.57
2023-04-26T04:48:26.297Z,56.70
2023-04-26T04:49:26.049Z,56.46
2023-04-26T04:50:26.016Z,56.62
2023-04-26T04:51:26.009Z,56.12
2023-04-26T04:52:25.947Z,56.32
2023-04-26T04:53:26.001Z,56.26
2023-04-26T04:54:25.986Z,56.43
2023-04-26T04:55:26.051Z,56.48
2023-04-26T04:56:25.937Z,56.39
2023-04-26T04:57:25.993Z,56.56
2023-04-26T04:58:25.963Z,56.75
2023-04-26T04:59:26.299Z,56.61
2023-04-26T05:00:25.948Z,56.95
2023-04-26T05:01:26.033Z,56.91
2023-04-26T05:02:26.010Z,56.62
2023-04-26T05:03:25.958Z,56.84
2023-04-26T05:04:26.115Z,56.89
2023-04-26T05:05:25.873Z,57.04
2023-04-26T05:06:25.852Z,57.08
2023-04-26T05:07:27.321Z,57.22
2023-04-26T05:08:25.953Z,57.35
2023-04-26T05:09:25.956Z,57.08
2023-04-26T05:10:25.848Z,56.72
2023-04-26T05:11:25.885Z,56.60
2023-04-26T05:12:25.830Z,56.40
2023-04-26T05:13:25.822Z,56.53
2023-04-26T05:14:25.805Z,56.63
2023-04-26T05:15:25.829Z,56.55
2023-04-26T05:16:25.856Z,56.80
2023-04-26T05:17:25.809Z,56.92
2023-04-26T05:18:25.977Z,56.94
2023-04-26T05:19:26.737Z,56.52
2023-04-26T05:20:26.887Z,56.75
2023-04-26T05:21:25.762Z,56.90
2023-04-26T05:22:25.756Z,57.03
2023-04-26T05:23:26.747Z,57.13
2023-04-26T05:24:25.785Z,56.85
2023-04-26T05:25:25.865Z,57.04
2023-04-26T05:26:25.816Z,56.71
2023-04-26T05:27:25.727Z,56.30
2023-04-26T05:28:25.757Z,56.66
2023-04-26T05:29:25.759Z,56.39
2023-04-26T05:30:25.831Z,56.54
2023-04-26T05:31:25.780Z,56.67
2023-04-26T05:32:25.715Z,56.63
2023-04-26T05:33:25.698Z,56.39
2023-04-26T05:34:25.775Z,56.70
2023-04-26T05:35:26.228Z,56.57
2023-04-26T05:36:27.939Z,56.74
2023-04-26T05:37:25.731Z,56.95
2023-04-26T05:38:25.734Z,56.76
2023-04-26T05:39:25.783Z,56.73
2023-04-26T05:40:25.684Z,56.63
2023-04-26T05:41:26.069Z,56.56
2023-04-26T05:42:25.634Z,56.66
2023-04-26T05:43:25.716Z,56.22
2023-04-26T05:44:25.664Z,53.89
2023-04-26T05:45:26.244Z,50.97
2023-04-26T05:46:25.824Z,51.15
2023-04-26T05:47:25.765Z,51.79
2023-04-26T05:48:25.656Z,51.32
2023-04-26T05:49:25.657Z,50.67
2023-04-26T05:50:25.751Z,51.56
2023-04-26T05:51:26.396Z,51.63
2023-04-26T05:52:25.880Z,51.39
2023-04-26T05:53:25.707Z,51.24
2023-04-26T05:54:25.679Z,50.44
2023-04-26T05:55:25.892Z,51.08
2023-04-26T05:56:27.754Z,51.63
2023-04-26T05:57:27.149Z,51.93
2023-04-26T05:58:25.541Z,51.36
2023-04-26T05:59:25.536Z,51.22
2023-04-26T06:00:25.608Z,51.27
2023-04-26T06:01:25.589Z,51.00
2023-04-26T06:02:25.675Z,51.13
2023-04-26T06:03:25.754Z,51.84
2023-04-26T06:04:25.635Z,52.66
2023-04-26T06:05:25.681Z,50.48
2023-04-26T06:06:25.501Z,50.76
2023-04-26T06:07:25.469Z,50.22
2023-04-26T06:08:25.505Z,50.88
2023-04-26T06:09:25.513Z,51.07
2023-04-26T06:10:25.621Z,51.02
2023-04-26T06:11:25.481Z,51.62
2023-04-26T06:12:25.448Z,51.43
2023-04-26T06:13:25.428Z,50.78
2023-04-26T06:14:30.460Z,51.34
2023-04-26T06:15:27.428Z,51.09
2023-04-26T06:16:25.505Z,49.49
2023-04-26T06:17:25.469Z,49.41
2023-04-26T06:18:25.408Z,50.68
2023-04-26T06:19:25.414Z,49.55
2023-04-26T06:20:25.407Z,50.23
2023-04-26T06:21:25.410Z,50.23
2023-04-26T06:22:25.378Z,49.91
2023-04-26T06:23:25.436Z,50.14
2023-04-26T06:24:25.374Z,50.73
2023-04-26T06:25:25.351Z,50.32
2023-04-26T06:26:25.419Z,50.54
2023-04-26T06:27:25.359Z,50.32
2023-04-26T06:28:25.351Z,50.47
2023-04-26T06:29:25.400Z,50.70
2023-04-26T06:30:25.338Z,51.62
2023-04-26T06:31:25.374Z,50.16
2023-04-26T06:32:25.343Z,50.47
2023-04-26T06:33:25.309Z,50.08
2023-04-26T06:34:26.317Z,49.94
2023-04-26T06:35:25.301Z,50.78
2023-04-26T06:36:25.310Z,49.62
2023-04-26T06:37:25.287Z,50.63
2023-04-26T06:38:25.268Z,50.00
2023-04-26T06:39:25.273Z,49.41
2023-04-26T06:40:25.275Z,50.18
2023-04-26T06:41:25.266Z,50.65
2023-04-26T06:42:25.230Z,50.14
2023-04-26T06:43:25.250Z,51.66
2023-04-26T06:44:25.224Z,50.21
2023-04-26T06:45:25.226Z,50.76
2023-04-26T06:46:25.244Z,50.80
2023-04-26T06:47:25.247Z,50.10
2023-04-26T06:48:25.217Z,49.71
2023-04-26T06:49:25.405Z,49.05
2023-04-26T06:50:25.212Z,49.90
2023-04-26T06:51:25.233Z,49.24
2023-04-26T06:52:25.169Z,48.59
2023-04-26T06:53:25.172Z,49.03
2023-04-26T06:54:25.145Z,49.76
2023-04-26T06:55:25.166Z,48.83
2023-04-26T06:56:25.200Z,48.88
2023-04-26T06:57:25.134Z,49.09
2023-04-26T06:58:25.140Z,49.08
2023-04-26T06:59:25.123Z,49.34
2023-04-26T07:00:25.128Z,49.52
2023-04-26T07:01:25.156Z,49.27
2023-04-26T07:02:25.303Z,49.69
2023-04-26T07:03:25.206Z,50.52
2023-04-26T07:04:26.199Z,50.35
2023-04-26T07:05:25.101Z,51.14
2023-04-26T07:06:25.105Z,50.35
2023-04-26T07:07:25.069Z,49.39
2023-04-26T07:08:25.069Z,48.46
2023-04-26T07:09:25.061Z,49.16
2023-04-26T07:10:25.038Z,50.34
2023-04-26T07:11:26.471Z,50.41
2023-04-26T07:12:25.028Z,50.57
2023-04-26T07:13:25.160Z,50.32
2023-04-26T07:14:25.044Z,50.93
2023-04-26T07:15:25.021Z,51.85
2023-04-26T07:16:25.073Z,50.40
2023-04-26T07:17:25.026Z,49.93
2023-04-26T07:18:25.025Z,49.84
2023-04-26T07:19:25.015Z,50.75
2023-04-26T07:20:24.988Z,50.25
2023-04-26T07:21:24.997Z,50.46
2023-04-26T07:22:24.977Z,50.36
2023-04-26T07:23:24.980Z,50.04
2023-04-26T07:24:24.957Z,50.10
2023-04-26T07:25:24.947Z,50.17
2023-04-26T07:26:25.026Z,50.54
2023-04-26T07:27:24.932Z,50.14
2023-04-26T07:28:24.925Z,49.66
2023-04-26T07:29:24.997Z,49.91
2023-04-26T07:30:24.946Z,50.47
2023-04-26T07:31:24.937Z,50.16
2023-04-26T07:32:24.941Z,49.76
2023-04-26T07:33:24.993Z,49.13
2023-04-26T07:34:24.887Z,48.88
2023-04-26T07:35:24.868Z,50.27
2023-04-26T07:36:25.231Z,50.41
2023-04-26T07:37:25.853Z,48.52
2023-04-26T07:38:24.856Z,49.69
2023-04-26T07:39:24.880Z,49.85
2023-04-26T07:40:24.853Z,49.22
2023-04-26T07:41:24.854Z,50.21
2023-04-26T07:42:24.828Z,50.10
2023-04-26T07:43:24.845Z,50.36
2023-04-26T07:44:24.828Z,50.68
2023-04-26T07:45:24.869Z,50.26
2023-04-26T07:46:24.898Z,47.45
2023-04-26T07:47:24.821Z,49.87
2023-04-26T07:48:24.799Z,49.85
2023-04-26T07:49:24.776Z,50.26
2023-04-26T07:50:24.886Z,49.73
2023-04-26T07:51:24.795Z,50.57
2023-04-26T07:52:24.768Z,49.51
2023-04-26T07:53:24.753Z,50.93
2023-04-26T07:54:24.743Z,48.91
2023-04-26T07:55:24.776Z,49.31
2023-04-26T07:56:24.766Z,49.08
2023-04-26T07:57:24.719Z,49.47
2023-04-26T07:58:24.737Z,50.09
2023-04-26T07:59:24.721Z,49.07
2023-04-26T08:00:24.751Z,49.21
2023-04-26T08:01:24.790Z,48.92
2023-04-26T08:02:36.875Z,49.22
2023-04-26T08:03:26.896Z,49.76
2023-04-26T08:04:24.752Z,49.54
2023-04-26T08:05:24.924Z,49.03
2023-04-26T08:06:24.810Z,48.51
2023-04-26T08:07:24.657Z,49.26
2023-04-26T08:08:24.648Z,51.18
2023-04-26T08:09:24.654Z,49.94
2023-04-26T08:10:24.679Z,50.26
2023-04-26T08:11:24.695Z,48.18
2023-04-26T08:12:24.630Z,48.75
2023-04-26T08:13:26.347Z,49.15
2023-04-26T08:14:24.620Z,47.32
2023-04-26T08:15:24.614Z,47.85
2023-04-26T08:16:24.632Z,48.88
2023-04-26T08:17:24.702Z,49.41
2023-04-26T08:18:24.627Z,49.83
2023-04-26T08:19:24.580Z,49.05
2023-04-26T08:20:24.561Z,49.39
2023-04-26T08:21:24.604Z,50.16
2023-04-26T08:22:24.705Z,49.57
2023-04-26T08:23:24.550Z,49.32
2023-04-26T08:24:24.532Z,49.19
2023-04-26T08:25:24.554Z,48.86
2023-04-26T08:26:24.546Z,48.54
2023-04-26T08:27:24.548Z,48.18
2023-04-26T08:28:25.534Z,49.19
2023-04-26T08:29:24.522Z,50.58
2023-04-26T08:30:24.712Z,49.67
2023-04-26T08:31:24.564Z,49.21
2023-04-26T08:32:24.545Z,49.06
2023-04-26T08:33:24.495Z,48.58
2023-04-26T08:34:24.552Z,49.39
2023-04-26T08:35:24.466Z,50.11
2023-04-26T08:36:24.473Z,49.56
2023-04-26T08:37:24.529Z,49.58
2023-04-26T08:38:24.428Z,49.35
2023-04-26T08:39:24.426Z,48.84
2023-04-26T08:40:24.410Z,48.42
2023-04-26T08:41:24.432Z,48.90
2023-04-26T08:42:24.468Z,49.30
2023-04-26T08:43:24.407Z,50.72
2023-04-26T08:44:24.419Z,50.11
2023-04-26T08:45:24.374Z,50.05
2023-04-26T08:46:24.390Z,51.09
2023-04-26T08:47:25.081Z,50.69
2023-04-26T08:48:24.364Z,50.61
2023-04-26T08:49:24.374Z,50.74
2023-04-26T08:50:24.487Z,50.08
2023-04-26T08:51:24.341Z,50.03
2023-04-26T08:52:24.369Z,49.32
2023-04-26T08:53:24.324Z,48.99
2023-04-26T08:54:24.320Z,49.78
2023-04-26T08:55:24.322Z,48.86
2023-04-26T08:56:24.306Z,48.73
2023-04-26T08:57:24.358Z,48.76
2023-04-26T08:58:24.295Z,48.96
2023-04-26T08:59:24.293Z,48.77
2023-04-26T09:00:24.280Z,48.88
2023-04-26T09:01:26.557Z,48.71
2023-04-26T09:02:25.504Z,49.55
2023-04-26T09:03:24.404Z,48.44
2023-04-26T09:04:24.649Z,47.64
2023-04-26T09:05:24.804Z,47.55
2023-04-26T09:06:24.244Z,48.55
2023-04-26T09:07:24.255Z,47.55
2023-04-26T09:08:24.239Z,48.72
2023-04-26T09:09:24.223Z,47.81
2023-04-26T09:10:24.306Z,49.63
2023-04-26T09:11:24.235Z,49.48
2023-04-26T09:12:24.224Z,49.51
2023-04-26T09:13:24.206Z,49.96
2023-04-26T09:14:25.190Z,50.49
2023-04-26T09:15:24.231Z,49.66
2023-04-26T09:16:24.268Z,50.36
2023-04-26T09:17:24.291Z,51.19
2023-04-26T09:18:24.171Z,50.22
2023-04-26T09:19:24.166Z,49.66
2023-04-26T09:20:24.155Z,49.12
2023-04-26T09:21:24.143Z,49.29
2023-04-26T09:22:24.156Z,49.45
2023-04-26T09:23:25.142Z,49.30
2023-04-26T09:24:24.205Z,49.13
2023-04-26T09:25:24.449Z,48.72
2023-04-26T09:26:24.122Z,48.58
2023-04-26T09:27:24.120Z,49.17
2023-04-26T09:28:24.107Z,48.80
2023-04-26T09:29:24.089Z,49.58
2023-04-26T09:30:24.092Z,49.31
2023-04-26T09:31:24.100Z,49.07
2023-04-26T09:32:24.078Z,47.24
2023-04-26T09:33:24.128Z,48.87
2023-04-26T09:34:24.049Z,48.72
2023-04-26T09:35:24.061Z,49.88
2023-04-26T09:36:24.042Z,48.28
2023-04-26T09:37:24.075Z,48.22
2023-04-26T09:38:24.037Z,48.54
2023-04-26T09:39:24.030Z,48.70
2023-04-26T09:40:24.036Z,47.80
2023-04-26T09:41:24.008Z,49.19
2023-04-26T09:42:24.023Z,48.49
2023-04-26T09:43:24.003Z,49.19
2023-04-26T09:44:24.011Z,49.36
2023-04-26T09:45:23.972Z,49.77
2023-04-26T09:46:24.111Z,49.65
2023-04-26T09:47:24.046Z,49.53
2023-04-26T09:48:23.958Z,50.06
2023-04-26T09:49:23.965Z,49.95
2023-04-26T09:50:23.933Z,51.57
2023-04-26T09:51:23.939Z,48.08
2023-04-26T09:52:23.956Z,48.18
2023-04-26T09:53:23.951Z,48.54
2023-04-26T09:54:23.935Z,48.66
2023-04-26T09:55:34.063Z,49.30
2023-04-26T09:56:25.894Z,49.23
2023-04-26T09:57:24.012Z,49.24
2023-04-26T09:58:23.883Z,49.40
2023-04-26T09:59:23.885Z,50.05
2023-04-26T10:00:23.883Z,49.03
2023-04-26T10:01:23.932Z,49.30
2023-04-26T10:02:23.967Z,48.83
2023-04-26T10:03:24.001Z,48.74
2023-04-26T10:04:23.924Z,48.43
2023-04-26T10:05:23.852Z,48.97
2023-04-26T10:06:23.824Z,49.64
2023-04-26T10:07:25.189Z,49.39
2023-04-26T10:08:23.824Z,49.30
2023-04-26T10:09:23.821Z,49.39
2023-04-26T10:10:23.800Z,49.01
2023-04-26T10:11:23.800Z,50.08
2023-04-26T10:12:23.814Z,48.83
2023-04-26T10:13:23.835Z,49.02
2023-04-26T10:14:23.793Z,49.58
2023-04-26T10:15:23.766Z,49.80
2023-04-26T10:16:23.794Z,49.91
2023-04-26T10:17:23.876Z,50.61
2023-04-26T10:18:23.729Z,49.76
2023-04-26T10:19:23.894Z,50.41
2023-04-26T10:20:23.903Z,48.22
2023-04-26T10:21:23.707Z,47.89
2023-04-26T10:22:23.764Z,49.34
2023-04-26T10:23:23.729Z,50.79
2023-04-26T10:24:23.690Z,50.69
2023-04-26T10:25:23.681Z,50.56
2023-04-26T10:26:23.700Z,49.29
2023-04-26T10:27:23.684Z,49.56
2023-04-26T10:28:23.679Z,49.21
2023-04-26T10:29:23.682Z,49.43
2023-04-26T10:30:23.660Z,49.08
2023-04-26T10:31:23.688Z,47.45
2023-04-26T10:32:23.641Z,48.08
2023-04-26T10:33:23.929Z,48.25
2023-04-26T10:34:23.630Z,52.47
2023-04-26T10:35:23.610Z,57.61
2023-04-26T10:36:23.614Z,49.23
2023-04-26T10:37:23.622Z,48.80
2023-04-26T10:38:23.614Z,48.61
2023-04-26T10:39:23.610Z,49.68
2023-04-26T10:40:23.604Z,50.99
2023-04-26T10:41:23.588Z,49.00
2023-04-26T10:42:24.529Z,49.18
2023-04-26T10:43:26.085Z,48.81
2023-04-26T10:44:23.563Z,48.54
2023-04-26T10:45:23.551Z,48.59
2023-04-26T10:46:23.591Z,48.59
2023-04-26T10:47:23.824Z,47.24
2023-04-26T10:48:23.555Z,48.82
2023-04-26T10:49:25.747Z,48.81
2023-04-26T10:50:23.536Z,48.75
2023-04-26T10:51:23.526Z,50.04
2023-04-26T10:52:23.530Z,50.22
2023-04-26T10:53:23.525Z,50.37
2023-04-26T10:54:23.493Z,49.77
2023-04-26T10:55:25.323Z,48.67
2023-04-26T10:56:23.504Z,49.67
2023-04-26T10:57:23.515Z,49.14
2023-04-26T10:58:23.498Z,49.89
2023-04-26T10:59:39.953Z,49.87
2023-04-26T11:00:25.664Z,49.12
2023-04-26T11:01:23.505Z,48.83
2023-04-26T11:02:23.466Z,48.90
2023-04-26T11:03:23.694Z,49.02
2023-04-26T11:04:23.536Z,49.13
2023-04-26T11:05:25.343Z,48.74
2023-04-26T11:06:24.439Z,49.32
2023-04-26T11:07:23.403Z,48.86
2023-04-26T11:08:23.438Z,48.54
2023-04-26T11:09:23.393Z,48.30
2023-04-26T11:10:23.400Z,48.51
2023-04-26T11:11:23.393Z,48.82
2023-04-26T11:12:23.372Z,48.82
2023-04-26T11:13:23.391Z,48.75
2023-04-26T11:14:23.403Z,47.40
2023-04-26T11:15:23.360Z,48.77
2023-04-26T11:16:23.411Z,47.70
2023-04-26T11:17:23.385Z,48.01
2023-04-26T11:18:23.341Z,47.13
2023-04-26T11:19:24.350Z,46.61
2023-04-26T11:20:23.327Z,46.28
2023-04-26T11:21:23.314Z,47.74
2023-04-26T11:22:23.314Z,48.43
2023-04-26T11:23:23.352Z,47.38
2023-04-26T11:24:23.298Z,48.02
2023-04-26T11:25:23.291Z,48.92
2023-04-26T11:26:23.274Z,49.24
2023-04-26T11:27:23.311Z,49.41
2023-04-26T11:28:23.360Z,49.26
2023-04-26T11:29:23.281Z,49.18
2023-04-26T11:30:23.251Z,49.59
2023-04-26T11:31:23.289Z,49.35
2023-04-26T11:32:23.250Z,49.16
2023-04-26T11:33:23.290Z,49.28
2023-04-26T11:34:23.264Z,49.33
2023-04-26T11:35:23.224Z,47.68
2023-04-26T11:36:23.216Z,46.98
2023-04-26T11:37:23.206Z,49.48
2023-04-26T11:38:23.208Z,49.39
2023-04-26T11:39:23.221Z,49.68
2023-04-26T11:40:23.214Z,48.98
2023-04-26T11:41:23.171Z,48.81
2023-04-26T11:42:23.167Z,48.55
2023-04-26T11:43:23.243Z,49.23
2023-04-26T11:44:23.157Z,49.81
2023-04-26T11:45:23.238Z,49.44
2023-04-26T11:46:23.169Z,49.21
2023-04-26T11:47:24.547Z,49.71
2023-04-26T11:48:23.202Z,49.31
2023-04-26T11:49:23.161Z,49.56
2023-04-26T11:50:23.142Z,49.98
2023-04-26T11:51:23.108Z,49.42
2023-04-26T11:52:23.097Z,49.05
2023-04-26T11:53:23.115Z,48.98
2023-04-26T11:54:23.095Z,48.83
2023-04-26T11:55:23.089Z,50.32
2023-04-26T11:56:23.100Z,50.04
2023-04-26T11:57:23.093Z,49.28
2023-04-26T11:58:23.086Z,49.49
2023-04-26T11:59:23.072Z,49.07
2023-04-26T12:00:23.067Z,49.76
2023-04-26T12:01:23.048Z,49.24
2023-04-26T12:02:23.163Z,49.27
2023-04-26T12:03:23.244Z,48.59
2023-04-26T12:04:23.132Z,49.57
2023-04-26T12:05:23.051Z,49.16
2023-04-26T12:06:23.042Z,49.05
2023-04-26T12:07:23.012Z,48.17
2023-04-26T12:08:22.991Z,48.65
2023-04-26T12:09:23.187Z,48.01
2023-04-26T12:10:22.995Z,48.55
2023-04-26T12:11:22.974Z,48.41
2023-04-26T12:12:22.972Z,48.22
2023-04-26T12:13:22.959Z,48.38
2023-04-26T12:14:22.973Z,49.02
2023-04-26T12:15:22.964Z,48.94
2023-04-26T12:16:26.802Z,49.43
2023-04-26T12:17:23.994Z,50.37
2023-04-26T12:18:22.983Z,49.70
2023-04-26T12:19:22.931Z,49.75
2023-04-26T12:20:22.914Z,51.33
2023-04-26T12:21:22.911Z,49.67
2023-04-26T12:22:22.914Z,49.89
2023-04-26T12:23:22.959Z,47.94
2023-04-26T12:24:22.893Z,48.99
2023-04-26T12:25:22.920Z,49.46
2023-04-26T12:26:22.896Z,50.09
2023-04-26T12:27:22.893Z,48.85
2023-04-26T12:28:22.871Z,49.10
2023-04-26T12:29:22.864Z,49.09
2023-04-26T12:30:22.861Z,48.96
2023-04-26T12:31:22.887Z,48.84
2023-04-26T12:32:22.961Z,49.64
2023-04-26T12:33:23.023Z,49.14
2023-04-26T12:34:22.834Z,49.17
2023-04-26T12:35:22.811Z,49.03
2023-04-26T12:36:22.810Z,48.90
2023-04-26T12:37:22.809Z,49.32
2023-04-26T12:38:22.833Z,48.70
2023-04-26T12:39:22.840Z,52.36
2023-04-26T12:40:22.778Z,50.81
2023-04-26T12:41:22.767Z,49.64
2023-04-26T12:42:22.756Z,49.40
2023-04-26T12:43:22.781Z,50.29
2023-04-26T12:44:22.934Z,49.71
2023-04-26T12:45:22.749Z,49.60
2023-04-26T12:46:22.788Z,49.66
2023-04-26T12:47:22.763Z,49.43
2023-04-26T12:48:22.744Z,49.34
2023-04-26T12:49:22.728Z,49.66
2023-04-26T12:50:22.712Z,49.14
2023-04-26T12:51:22.692Z,49.49
2023-04-26T12:52:22.696Z,49.59